createdAt,value
2023-01-13T00:01:44.588Z,7.07
2023-01-13T00:07:05.243Z,7.08
2023-01-13T00:12:25.947Z,7.09
2023-01-13T00:17:48.042Z,7.14
2023-01-13T00:23:08.806Z,7.12
2023-01-13T00:28:29.905Z,7.11
2023-01-13T00:33:52.085Z,7.17
2023-01-13T00:39:13.226Z,7.18
2023-01-13T00:44:34.107Z,7.14
2023-01-13T00:49:55.492Z,7.10
2023-01-13T00:55:16.908Z,7.11
2023-01-13T01:00:37.798Z,7.07
2023-01-13T01:06:04.815Z,7.06
2023-01-13T01:11:29.626Z,7.03
2023-01-13T01:16:50.508Z,7.03
2023-01-13T01:22:11.304Z,7.02
2023-01-13T01:27:32.105Z,7.03
2023-01-13T01:32:52.849Z,7.03
2023-01-13T01:38:13.842Z,7.01
2023-01-13T01:44:00.436Z,7.04
2023-01-13T01:49:24.026Z,7.05
2023-01-13T01:55:11.907Z,7.05
2023-01-13T02:00:33.014Z,7.03
2023-01-13T02:05:54.290Z,7.01
2023-01-13T02:11:47.959Z,7.05
2023-01-13T02:17:21.099Z,7.06
2023-01-13T02:23:39.439Z,7.10
2023-01-13T02:29:33.475Z,7.09
2023-01-13T02:35:13.359Z,7.12
2023-01-13T02:40:46.003Z,7.12
2023-01-13T02:46:15.812Z,7.17
2023-01-13T02:51:38.802Z,7.22
2023-01-13T02:57:01.306Z,7.23
2023-01-13T03:02:23.717Z,7.21
2023-01-13T03:07:49.402Z,7.21
2023-01-13T03:13:31.776Z,7.24
2023-01-13T03:18:59.933Z,7.25
2023-01-13T03:24:44.247Z,7.22
2023-01-13T03:30:17.138Z,7.21
2023-01-13T03:35:43.539Z,7.19
2023-01-13T03:41:11.900Z,7.21
2023-01-13T03:46:41.545Z,7.13
2023-01-13T03:52:07.630Z,7.09
2023-01-13T03:57:34.582Z,7.13
2023-01-13T04:03:02.605Z,7.15
2023-01-13T04:08:27.525Z,7.12
2023-01-13T04:13:50.076Z,7.16
2023-01-13T04:19:10.820Z,7.12
2023-01-13T04:24:31.502Z,7.09
2023-01-13T04:29:52.193Z,7.14
2023-01-13T04:35:12.837Z,7.17
2023-01-13T04:40:33.682Z,7.13
2023-01-13T04:45:54.350Z,7.15
2023-01-13T04:51:14.925Z,7.06
2023-01-13T04:56:35.598Z,7.05
2023-01-13T05:01:56.533Z,6.98
2023-01-13T05:07:17.451Z,6.93
2023-01-13T05:12:56.949Z,6.90
2023-01-13T05:18:19.274Z,6.94
2023-01-13T05:23:58.435Z,6.97
2023-01-13T05:29:19.329Z,6.95
2023-01-13T05:34:40.006Z,6.96
2023-01-13T05:40:19.112Z,6.91
2023-01-13T05:45:39.936Z,6.93
2023-01-13T05:51:02.266Z,6.88
2023-01-13T05:56:23.062Z,6.87
2023-01-13T06:01:43.623Z,6.83
2023-01-13T06:07:04.375Z,7.07
2023-01-13T06:12:25.128Z,7.05
2023-01-13T06:17:45.938Z,7.01
2023-01-13T06:23:09.577Z,7.01
2023-01-13T06:28:30.324Z,7.03
2023-01-13T06:33:55.697Z,7.00
2023-01-13T06:39:19.811Z,6.99
2023-01-13T06:44:40.589Z,6.95
2023-01-13T06:50:01.366Z,6.95
2023-01-13T06:55:21.977Z,6.97
2023-01-13T07:00:43.197Z,6.96
2023-01-13T07:06:04.061Z,6.97
2023-01-13T07:11:25.135Z,6.98
2023-01-13T07:16:46.226Z,7.01
2023-01-13T07:22:07.447Z,7.12
2023-01-13T07:27:28.494Z,7.05
2023-01-13T07:32:49.307Z,7.04
2023-01-13T07:38:10.172Z,7.03
2023-01-13T07:43:33.807Z,7.05
2023-01-13T07:48:55.012Z,7.05
2023-01-13T07:54:15.625Z,7.07
2023-01-13T07:59:36.882Z,7.07
2023-01-13T08:04:58.009Z,7.14
2023-01-13T08:10:18.721Z,7.12
2023-01-13T08:15:39.496Z,7.14
2023-01-13T08:21:08.862Z,7.13
2023-01-13T08:26:29.498Z,7.15
2023-01-13T08:31:50.133Z,7.15
2023-01-13T08:37:10.715Z,7.13
2023-01-13T08:42:31.601Z,7.16
2023-01-13T08:47:52.350Z,7.22
2023-01-13T08:53:13.199Z,7.29
2023-01-13T08:58:33.867Z,7.40
2023-01-13T09:03:55.997Z,7.51
2023-01-13T09:09:17.353Z,7.57
2023-01-13T09:14:39.017Z,7.60
2023-01-13T09:19:59.772Z,7.65
2023-01-13T09:25:20.371Z,7.65
2023-01-13T09:30:41.276Z,7.69
2023-01-13T09:36:01.903Z,7.74
2023-01-13T09:41:43.792Z,7.76
2023-01-13T09:47:15.371Z,7.79
2023-01-13T09:52:37.114Z,7.88
2023-01-13T09:57:57.953Z,7.95
2023-01-13T10:03:30.407Z,8.02
2023-01-13T10:08:51.433Z,8.12
2023-01-13T10:14:23.602Z,8.19
2023-01-13T10:20:07.035Z,8.31
2023-01-13T10:25:33.541Z,8.40
2023-01-13T10:30:54.652Z,8.49
2023-01-13T10:36:21.373Z,8.56
2023-01-13T10:41:44.142Z,8.58
2023-01-13T10:47:28.970Z,8.60
2023-01-13T10:53:16.412Z,8.62
2023-01-13T10:58:37.151Z,8.68
2023-01-13T11:03:57.835Z,8.77
2023-01-13T11:09:25.199Z,8.90
2023-01-13T11:14:48.159Z,9.00
2023-01-13T11:20:11.801Z,9.17
2023-01-13T11:25:43.270Z,9.27
2023-01-13T11:31:31.027Z,9.27
2023-01-13T11:36:54.332Z,9.26
2023-01-13T11:42:56.571Z,9.25
2023-01-13T11:48:22.139Z,9.22
2023-01-13T11:54:07.877Z,9.17
2023-01-13T11:59:43.736Z,9.13
2023-01-13T12:05:23.972Z,9.10
2023-01-13T12:10:44.930Z,9.04
2023-01-13T12:16:30.689Z,9.00
2023-01-13T12:22:13.324Z,8.96
2023-01-13T12:27:49.503Z,8.93
2023-01-13T12:33:52.116Z,8.97
2023-01-13T12:39:28.380Z,9.09
2023-01-13T12:45:31.926Z,9.22
2023-01-13T12:51:00.766Z,9.24
2023-01-13T12:56:44.916Z,9.20
2023-01-13T13:02:28.244Z,9.14
2023-01-13T13:08:12.754Z,9.10
2023-01-13T13:13:41.348Z,9.01
2023-01-13T13:19:20.292Z,8.96
2023-01-13T13:24:43.203Z,8.90
2023-01-13T13:30:18.094Z,8.78
2023-01-13T13:35:52.355Z,8.66
2023-01-13T13:41:43.384Z,8.43
2023-01-13T13:47:06.461Z,8.02
2023-01-13T13:52:32.886Z,7.96
2023-01-13T13:57:56.087Z,7.98
2023-01-13T14:03:28.149Z,7.96
2023-01-13T14:08:50.454Z,7.90
2023-01-13T14:14:16.881Z,7.88
2023-01-13T14:19:42.550Z,7.89
2023-01-13T14:25:23.576Z,7.92
2023-01-13T14:30:44.714Z,7.97
2023-01-13T14:36:15.213Z,7.97
2023-01-13T14:41:41.883Z,7.83
2023-01-13T14:47:17.306Z,7.72
2023-01-13T14:52:54.721Z,7.63
2023-01-13T14:58:21.663Z,7.45
2023-01-13T15:03:42.696Z,7.34
2023-01-13T15:09:12.633Z,7.40
2023-01-13T15:14:34.477Z,7.30
2023-01-13T15:19:55.284Z,7.28
2023-01-13T15:25:16.237Z,7.32
2023-01-13T15:30:37.320Z,7.37
2023-01-13T15:35:58.567Z,7.72
2023-01-13T15:41:39.565Z,7.60
2023-01-13T15:47:05.027Z,7.55
2023-01-13T15:52:27.487Z,7.47
2023-01-13T15:57:51.096Z,7.36
2023-01-13T16:03:13.673Z,7.18
2023-01-13T16:08:35.087Z,7.16
2023-01-13T16:13:55.575Z,7.06
2023-01-13T16:19:16.361Z,6.97
2023-01-13T16:24:39.647Z,7.00
2023-01-13T16:30:00.391Z,6.94
2023-01-13T16:35:22.404Z,6.93
2023-01-13T16:40:46.861Z,6.90
2023-01-13T16:46:21.390Z,6.94
2023-01-13T16:51:43.360Z,6.99
2023-01-13T16:57:04.662Z,7.01
2023-01-13T17:02:25.688Z,6.99
2023-01-13T17:07:48.081Z,6.97
2023-01-13T17:13:16.002Z,6.89
2023-01-13T17:18:37.620Z,6.82
2023-01-13T17:23:58.343Z,6.66
2023-01-13T17:29:22.322Z,6.50
2023-01-13T17:34:43.839Z,6.42
2023-01-13T17:40:04.976Z,6.33
2023-01-13T17:45:25.889Z,6.36
2023-01-13T17:50:47.900Z,6.35
2023-01-13T17:56:10.448Z,6.22
2023-01-13T18:01:33.233Z,6.06
2023-01-13T18:06:56.747Z,6.13
2023-01-13T18:12:17.390Z,6.10
2023-01-13T18:17:38.054Z,6.04
2023-01-13T18:23:17.341Z,6.00
2023-01-13T18:28:37.851Z,6.05
2023-01-13T18:33:58.750Z,6.13
2023-01-13T18:39:19.735Z,6.19
2023-01-13T18:44:40.746Z,6.20
2023-01-13T18:50:01.593Z,6.15
2023-01-13T18:55:22.936Z,6.09
2023-01-13T19:00:44.205Z,5.99
2023-01-13T19:06:07.603Z,5.88
2023-01-13T19:11:30.582Z,5.83
2023-01-13T19:16:52.679Z,5.80
2023-01-13T19:22:15.266Z,5.73
2023-01-13T19:27:36.043Z,5.77
2023-01-13T19:32:56.715Z,5.72
2023-01-13T19:38:17.407Z,5.63
2023-01-13T19:43:56.774Z,5.63
2023-01-13T19:49:17.633Z,5.62
2023-01-13T19:54:38.808Z,5.57
2023-01-13T19:59:59.256Z,5.54
2023-01-13T20:05:22.736Z,5.50
2023-01-13T20:10:45.562Z,5.47
2023-01-13T20:16:06.930Z,5.46
2023-01-13T20:21:27.959Z,5.47
2023-01-13T20:26:48.665Z,5.48
2023-01-13T20:32:09.377Z,5.49
2023-01-13T20:37:30.155Z,5.58
2023-01-13T20:42:51.871Z,5.60
2023-01-13T20:48:13.004Z,5.57
2023-01-13T20:53:34.044Z,5.59
2023-01-13T20:58:55.094Z,5.57
2023-01-13T21:04:16.035Z,5.50
2023-01-13T21:09:37.048Z,5.45
2023-01-13T21:15:16.458Z,5.41
2023-01-13T21:20:38.912Z,5.38
2023-01-13T21:26:00.648Z,5.31
2023-01-13T21:31:21.538Z,5.28
2023-01-13T21:36:42.629Z,5.31
2023-01-13T21:42:22.097Z,5.32
2023-01-13T21:47:48.895Z,5.35
2023-01-13T21:53:11.166Z,5.38
2023-01-13T21:58:32.370Z,5.38
2023-01-13T22:04:11.585Z,5.39
2023-01-13T22:09:32.531Z,5.36
2023-01-13T22:14:54.493Z,5.43
2023-01-13T22:20:15.589Z,5.43
2023-01-13T22:25:36.391Z,5.43
2023-01-13T22:30:56.990Z,5.43
2023-01-13T22:36:18.049Z,5.45
2023-01-13T22:41:38.873Z,5.43
2023-01-13T22:47:00.398Z,5.47
2023-01-13T22:52:22.432Z,5.56
2023-01-13T22:57:48.086Z,5.56
2023-01-13T23:03:09.365Z,5.50
2023-01-13T23:08:30.046Z,5.48
2023-01-13T23:13:57.266Z,5.46
2023-01-13T23:19:18.115Z,5.50
2023-01-13T23:24:38.770Z,5.53
2023-01-13T23:29:59.660Z,5.47
2023-01-13T23:35:20.278Z,5.44
2023-01-13T23:40:41.983Z,5.44
2023-01-13T23:46:04.887Z,5.43
2023-01-13T23:51:27.551Z,5.41
2023-01-13T23:56:55.011Z,5.40
